Wednesday, March 04, 2015
15:15 UTC
  |  Log In   |  Register Free
Airport Search:

Madison Airport
(KI39)

Madison Airport Diagram
No Airport Diagram Available

FAA data valid effective January 08, 2015 - March 05, 2015 (unless otherwise noted).

 
 
 
 
 
 
 
 
 
 
 
 
 
 

Current Aviation Weather for Madison Airport (KI39)

The most recent METAR observation for KI39 was updated at: 1508
METAR Summary (Translated METAR)
KI39
041455Z AUTO 19003KT 4SM SCT018 BKN024 OVC049 09/08 A2992 RMK AO2
KDVK
041455Z AUTO 34007KT 5SM RA OVC004 06/06 A2996 RMK AO2
(21 nm SW from KI39)
KLEX
041454Z 35009KT 5SM -RA BR OVC005 05/04 A2996 RMK AO2 SLP146 P0007 60031 T00500039 50019
(27.6 nm NW from KI39)
TAF Summary (Translated TAF)
KLEX
(28.6 nm NE from KDVK)
041120Z 0412/0512 34005KT 4SM -RA BR SCT008 BKN040 TEMPO 0412/0415 2SM -RA BR BKN007 FM041500 36005KT 2SM -RA BR BKN007 FM041800 36009KT 2SM -RAPL BR BKN007 FM041900 36009KT 2SM -PL BR BKN007 FM042200 36010KT 1SM -SNPL BR BKN004 FM042300 36010KT 1SM -SN BR BKN004
  Airport Weather Conditions for KI39

 Current Weather at I39
48° F
Overcast
South winds at 3.5 mph
I39 NOAA Radar

Pressure: 29.92 in
Humidity: 94%
Wind: South at 3.5 MPH (3 KT)
Dew Point: 46.4°F
Visibility: 4.00 mi


Airport Weather Forecast for KI39

Translated METAR and TAF for KDVK
Translated METAR for KDVK (1515 UTC 04 March 2015)
found at http://aviationweather.gov/adds/metars/
 
METAR text: KDVK 041455Z AUTO 34007KT 5SM RA OVC004 06/06 A2996 RMK AO2
Conditions at: KDVK (DANVILLE , KY, US) observed 1455 UTC 04 March 2015
Temperature: 6.0°C (43°F)
Dewpoint: 6.0°C (43°F) [RH = 100%]
Pressure (altimeter): 29.96 inches Hg (1014.6 mb)
Winds: from the NNW (340 degrees) at 8 MPH (7 knots; 3.6 m/s)
Visibility: 5 miles (8 km)
Ceiling: 400 feet AGL
Clouds: overcast cloud deck at 400 feet AGL
Weather: RA  (rain)
Translated TAF for KDVK

There is no translated TAF available for this airport

Find All Airport Services Find A Hotel Find A Rental Car Find A Golf Course Find A Restaurant $100 Hamburger



FBO's on the Field
FBO Company Facility Photos Services Transportation Aviation Fuel Prices: Prices include tax
Catering Weather Repair Courtesy Rental Type 100LL JetA JetA+ MOGAS 8087
 
Eastern Kentucky University

This FBO has not yet been rated
FS:Shell
Last Updated: Feb-03
Login to update fuel prices
SS:
Contact Eastern Kentucky UniversityMore FBO Information
 
Add another FBO Facility Photos Catering Weather Repair Courtesy Rental Type 100LL JetA JetA+ MOGAS 8087
Services Transportation Aviation Fuel Prices: Prices include tax


model-print
model-print
model-print
model-print